sensor_id;sensor_type;location;lat;lon;timestamp;pressure;altitude;pressure_sealevel;temperature;humidity
62111;BME280;48102;47.526;19.072;2023-02-17T04:41:11;101295.22;;;2.10;100.00
62111;BME280;48102;47.526;19.072;2023-02-17T04:44:17;101306.44;;;1.84;100.00
62111;BME280;48102;47.526;19.072;2023-02-17T04:47:19;101306.44;;;1.76;100.00
62111;BME280;48102;47.526;19.072;2023-02-17T04:50:24;101310.75;;;1.67;100.00
62111;BME280;48102;47.526;19.072;2023-02-17T04:53:27;101306.44;;;1.72;100.00
62111;BME280;48102;47.526;19.072;2023-02-17T04:56:30;101305.56;;;1.85;100.00
62111;BME280;48102;47.526;19.072;2023-02-17T04:59:35;101300.41;;;1.87;100.00
62111;BME280;48102;47.526;19.072;2023-02-17T05:02:38;101307.34;;;1.86;100.00
62111;BME280;48102;47.526;19.072;2023-02-17T05:05:41;101311.66;;;1.92;100.00
62111;BME280;48102;47.526;19.072;2023-02-17T05:08:44;101310.81;;;1.99;100.00
62111;BME280;48102;47.526;19.072;2023-02-17T05:11:49;101304.75;;;2.11;100.00
62111;BME280;48102;47.526;19.072;2023-02-17T05:14:52;101309.06;;;2.10;100.00
62111;BME280;48102;47.526;19.072;2023-02-17T05:17:55;101304.75;;;2.11;100.00
62111;BME280;48102;47.526;19.072;2023-02-17T05:20:58;101307.34;;;2.14;100.00
62111;BME280;48102;47.526;19.072;2023-02-17T05:24:01;101309.09;;;2.21;100.00
62111;BME280;48102;47.526;19.072;2023-02-17T05:27:04;101307.34;;;2.32;100.00
62111;BME280;48102;47.526;19.072;2023-02-17T05:30:07;101309.94;;;2.32;100.00
62111;BME280;48102;47.526;19.072;2023-02-17T05:33:10;101313.41;;;2.36;100.00
62111;BME280;48102;47.526;19.072;2023-02-17T05:36:13;101314.25;;;2.41;100.00
62111;BME280;48102;47.526;19.072;2023-02-17T05:39:16;101317.72;;;2.46;100.00
62111;BME280;48102;47.526;19.072;2023-02-17T05:42:19;101309.91;;;2.54;100.00
62111;BME280;48102;47.526;19.072;2023-02-17T05:45:22;101306.47;;;2.64;100.00
62111;BME280;48102;47.526;19.072;2023-02-17T05:48:25;101303.81;;;2.71;100.00
62111;BME280;48102;47.526;19.072;2023-02-17T05:51:28;101309.03;;;2.74;100.00
62111;BME280;48102;47.526;19.072;2023-02-17T05:54:32;101312.50;;;2.78;100.00
62111;BME280;48102;47.526;19.072;2023-02-17T05:57:35;101315.06;;;2.87;100.00
62111;BME280;48102;47.526;19.072;2023-02-17T06:00:39;101311.56;;;2.97;100.00
62111;BME280;48102;47.526;19.072;2023-02-17T06:03:42;101323.66;;;3.11;100.00
62111;BME280;48102;47.526;19.072;2023-02-17T06:06:45;101311.50;;;3.16;100.00
62111;BME280;48102;47.526;19.072;2023-02-17T06:09:48;101308.03;;;3.20;100.00
62111;BME280;48102;47.526;19.072;2023-02-17T06:12:51;101309.75;;;3.21;100.00
62111;BME280;48102;47.526;19.072;2023-02-17T06:15:54;101306.25;;;3.23;100.00
62111;BME280;48102;47.526;19.072;2023-02-17T06:18:57;101306.25;;;3.33;100.00
62111;BME280;48102;47.526;19.072;2023-02-17T06:22:01;101308.78;;;3.43;100.00
62111;BME280;48102;47.526;19.072;2023-02-17T06:25:04;101315.69;;;3.50;100.00
62111;BME280;48102;47.526;19.072;2023-02-17T06:28:08;101327.81;;;3.59;100.00
62111;BME280;48102;47.526;19.072;2023-02-17T06:31:11;101332.97;;;3.65;100.00
62111;BME280;48102;47.526;19.072;2023-02-17T06:34:14;101342.50;;;3.72;100.00
62111;BME280;48102;47.526;19.072;2023-02-17T06:37:16;101332.03;;;3.80;100.00
62111;BME280;48102;47.526;19.072;2023-02-17T06:40:20;101338.97;;;3.86;100.00
62111;BME280;48102;47.526;19.072;2023-02-17T06:43:23;101342.37;;;3.94;100.00
62111;BME280;48102;47.526;19.072;2023-02-17T06:46:26;101332.75;;;4.00;100.00
62111;BME280;48102;47.526;19.072;2023-02-17T06:49:28;101342.28;;;4.11;100.00
62111;BME280;48102;47.526;19.072;2023-02-17T06:52:31;101342.16;;;4.24;100.00
62111;BME280;48102;47.526;19.072;2023-02-17T06:55:34;101344.72;;;4.31;100.00
62111;BME280;48102;47.526;19.072;2023-02-17T06:58:39;101335.03;;;4.43;100.00
62111;BME280;48102;47.526;19.072;2023-02-17T07:01:42;101345.31;;;4.62;100.00
62111;BME280;48102;47.526;19.072;2023-02-17T07:04:45;101338.25;;;4.73;100.00
62111;BME280;48102;47.526;19.072;2023-02-17T07:07:48;101339.03;;;4.84;100.00
62111;BME280;48102;47.526;19.072;2023-02-17T07:10:51;101341.53;;;4.93;100.00
62111;BME280;48102;47.526;19.072;2023-02-17T07:13:54;101338.81;;;5.02;100.00
62111;BME280;48102;47.526;19.072;2023-02-17T07:16:57;101339.53;;;5.17;100.00
62111;BME280;48102;47.526;19.072;2023-02-17T07:20:00;101335.81;;;5.36;100.00
62111;BME280;48102;47.526;19.072;2023-02-17T07:23:03;101341.69;;;5.53;100.00
62111;BME280;48102;47.526;19.072;2023-02-17T07:26:08;101346.75;;;5.67;100.00
62111;BME280;48102;47.526;19.072;2023-02-17T07:29:11;101351.81;;;5.78;100.00
62111;BME280;48102;47.526;19.072;2023-02-17T07:32:15;101341.22;;;5.89;100.00
62111;BME280;48102;47.526;19.072;2023-02-17T07:35:18;101331.53;;;5.97;100.00
62111;BME280;48102;47.526;19.072;2023-02-17T07:38:20;101327.12;;;6.00;100.00
62111;BME280;48102;47.526;19.072;2023-02-17T07:41:24;101321.09;;;5.91;100.00
62111;BME280;48102;47.526;19.072;2023-02-17T07:44:30;101335.03;;;5.94;100.00
62111;BME280;48102;47.526;19.072;2023-02-17T07:47:34;101325.25;;;6.07;100.00
62111;BME280;48102;47.526;19.072;2023-02-17T07:50:36;101323.41;;;6.15;100.00
62111;BME280;48102;47.526;19.072;2023-02-17T07:53:40;101308.94;;;6.45;100.00
62111;BME280;48102;47.526;19.072;2023-02-17T07:56:43;101304.91;;;6.75;100.00
62111;BME280;48102;47.526;19.072;2023-02-17T07:59:46;101310.72;;;6.91;100.00
62111;BME280;48102;47.526;19.072;2023-02-17T08:02:49;101300.97;;;6.99;100.00
62111;BME280;48102;47.526;19.072;2023-02-17T08:05:54;101300.50;;;7.22;100.00
62111;BME280;48102;47.526;19.072;2023-02-17T08:08:57;101308.66;;;7.49;100.00
62111;BME280;48102;47.526;19.072;2023-02-17T08:12:19;101305.63;;;7.67;99.10
62111;BME280;48102;47.526;19.072;2023-02-17T08:15:41;101316.88;;;7.72;99.12
62111;BME280;48102;47.526;19.072;2023-02-17T08:18:43;101315.91;;;7.76;96.31
62111;BME280;48102;47.526;19.072;2023-02-17T08:21:47;101318.50;;;8.17;95.53
62111;BME280;48102;47.526;19.072;2023-02-17T08:24:50;101315.50;;;8.66;89.96
62111;BME280;48102;47.526;19.072;2023-02-17T08:27:53;101320.72;;;9.32;87.72
62111;BME280;48102;47.526;19.072;2023-02-17T08:30:56;101321.69;;;9.87;79.44
62111;BME280;48102;47.526;19.072;2023-02-17T08:34:04;101319.38;;;10.59;76.18
62111;BME280;48102;47.526;19.072;2023-02-17T08:37:07;101317.50;;;10.87;67.46
62111;BME280;48102;47.526;19.072;2023-02-17T08:40:12;101325.56;;;10.83;65.61
62111;BME280;48102;47.526;19.072;2023-02-17T08:43:15;101330.00;;;10.82;67.63
62111;BME280;48102;47.526;19.072;2023-02-17T08:46:18;101342.34;;;10.55;62.86
62111;BME280;48102;47.526;19.072;2023-02-17T08:49:24;101328.97;;;10.35;65.12
62111;BME280;48102;47.526;19.072;2023-02-17T08:52:28;101324.69;;;10.32;64.27
62111;BME280;48102;47.526;19.072;2023-02-17T08:55:31;101316.75;;;10.59;61.19
62111;BME280;48102;47.526;19.072;2023-02-17T08:58:51;101306.84;;;10.90;58.19
62111;BME280;48102;47.526;19.072;2023-02-17T09:01:54;101311.09;;;11.19;57.28
62111;BME280;48102;47.526;19.072;2023-02-17T09:04:57;101312.97;;;11.16;55.38
62111;BME280;48102;47.526;19.072;2023-02-17T09:08:00;101321.19;;;11.32;55.00
62111;BME280;48102;47.526;19.072;2023-02-17T09:11:04;101319.44;;;11.54;52.00
62111;BME280;48102;47.526;19.072;2023-02-17T09:14:11;101315.91;;;12.00;53.41
62111;BME280;48102;47.526;19.072;2023-02-17T09:17:14;101315.56;;;12.30;51.63
62111;BME280;48102;47.526;19.072;2023-02-17T09:20:17;101322.78;;;12.47;49.82
62111;BME280;48102;47.526;19.072;2023-02-17T09:23:26;101315.19;;;12.60;49.57
62111;BME280;48102;47.526;19.072;2023-02-17T09:26:29;101315.28;;;12.78;49.89
62111;BME280;48102;47.526;19.072;2023-02-17T09:29:32;101295.13;;;13.15;48.20
62111;BME280;48102;47.526;19.072;2023-02-17T09:32:36;101295.97;;;13.55;47.56
62111;BME280;48102;47.526;19.072;2023-02-17T09:35:39;101298.69;;;13.53;47.09
62111;BME280;48102;47.526;19.072;2023-02-17T09:38:42;101302.53;;;13.46;47.51
62111;BME280;48102;47.526;19.072;2023-02-17T09:41:47;101293.09;;;13.60;46.92
62111;BME280;48102;47.526;19.072;2023-02-17T09:45:01;101301.78;;;13.44;47.22
62111;BME280;48102;47.526;19.072;2023-02-17T09:48:10;101306.69;;;13.33;47.41
62111;BME280;48102;47.526;19.072;2023-02-17T09:55:23;101302.19;;;13.35;47.65
62111;BME280;48102;47.526;19.072;2023-02-17T10:01:40;101299.00;;;13.47;46.88
62111;BME280;48102;47.526;19.072;2023-02-17T10:04:45;101296.62;;;13.21;47.24
62111;BME280;48102;47.526;19.072;2023-02-17T10:08:00;101289.06;;;13.13;48.61
62111;BME280;48102;47.526;19.072;2023-02-17T10:11:13;101288.84;;;13.18;48.95
62111;BME280;48102;47.526;19.072;2023-02-17T10:14:28;101284.09;;;13.26;49.34
62111;BME280;48102;47.526;19.072;2023-02-17T10:17:48;101275.84;;;13.51;49.64
62111;BME280;48102;47.526;19.072;2023-02-17T10:21:03;101268.97;;;13.66;48.20
62111;BME280;48102;47.526;19.072;2023-02-17T10:24:09;101268.00;;;13.86;47.90
62111;BME280;48102;47.526;19.072;2023-02-17T10:30:37;101245.84;;;14.23;47.52
62111;BME280;48102;47.526;19.072;2023-02-17T10:34:01;101238.06;;;14.54;47.03
62111;BME280;48102;47.526;19.072;2023-02-17T10:37:25;101240.03;;;14.84;46.65
62111;BME280;48102;47.526;19.072;2023-02-17T10:40:30;101224.88;;;14.70;45.98
62111;BME280;48102;47.526;19.072;2023-02-17T10:43:33;101229.19;;;14.55;46.74
62111;BME280;48102;47.526;19.072;2023-02-17T10:46:39;101224.16;;;14.67;47.65
62111;BME280;48102;47.526;19.072;2023-02-17T10:49:47;101223.91;;;14.71;45.45
62111;BME280;48102;47.526;19.072;2023-02-17T10:52:52;101223.78;;;14.22;47.57
62111;BME280;48102;47.526;19.072;2023-02-17T10:56:18;101218.72;;;14.00;48.44
62111;BME280;48102;47.526;19.072;2023-02-17T10:59:32;101221.31;;;13.66;48.13
62111;BME280;48102;47.526;19.072;2023-02-17T11:02:46;101223.59;;;13.54;49.37
62111;BME280;48102;47.526;19.072;2023-02-17T11:05:58;101226.75;;;13.63;49.62
62111;BME280;48102;47.526;19.072;2023-02-17T11:09:14;101214.25;;;13.84;49.74
62111;BME280;48102;47.526;19.072;2023-02-17T11:12:27;101210.37;;;13.54;49.69
62111;BME280;48102;47.526;19.072;2023-02-17T11:15:43;101198.72;;;13.40;50.39
62111;BME280;48102;47.526;19.072;2023-02-17T11:18:48;101197.06;;;13.37;51.32
62111;BME280;48102;47.526;19.072;2023-02-17T11:21:53;101199.50;;;13.42;51.54
62111;BME280;48102;47.526;19.072;2023-02-17T11:25:04;101188.00;;;13.43;51.71
62111;BME280;48102;47.526;19.072;2023-02-17T11:28:13;101194.22;;;13.42;51.72
62111;BME280;48102;47.526;19.072;2023-02-17T11:31:30;101192.69;;;13.55;51.37
62111;BME280;48102;47.526;19.072;2023-02-17T11:34:36;101181.56;;;13.29;51.33
62111;BME280;48102;47.526;19.072;2023-02-17T11:37:42;101179.84;;;13.10;52.34
62111;BME280;48102;47.526;19.072;2023-02-17T11:41:00;101175.47;;;13.09;52.17
62111;BME280;48102;47.526;19.072;2023-02-17T11:44:08;101170.38;;;13.42;51.83
62111;BME280;48102;47.526;19.072;2023-02-17T11:47:40;101151.75;;;13.62;50.44
62111;BME280;48102;47.526;19.072;2023-02-17T11:54:23;101154.31;;;13.81;49.61
62111;BME280;48102;47.526;19.072;2023-02-17T11:57:40;101154.84;;;13.34;49.19
62111;BME280;48102;47.526;19.072;2023-02-17T12:20:53;101137.91;;;12.23;55.89
62111;BME280;48102;47.526;19.072;2023-02-17T12:28:04;101108.78;;;12.04;58.03
62111;BME280;48102;47.526;19.072;2023-02-17T12:31:48;101110.84;;;12.18;58.32
62111;BME280;48102;47.526;19.072;2023-02-17T12:34:58;101094.44;;;12.30;58.87
62111;BME280;48102;47.526;19.072;2023-02-17T12:38:12;101098.03;;;12.48;57.56
62111;BME280;48102;47.526;19.072;2023-02-17T12:44:38;101116.62;;;13.22;55.27
62111;BME280;48102;47.526;19.072;2023-02-17T12:48:02;101109.25;;;13.46;54.32
62111;BME280;48102;47.526;19.072;2023-02-17T12:51:32;101109.28;;;13.81;53.33
62111;BME280;48102;47.526;19.072;2023-02-17T12:54:51;101119.09;;;14.14;52.13
62111;BME280;48102;47.526;19.072;2023-02-17T12:57:58;101104.87;;;14.15;51.24
62111;BME280;48102;47.526;19.072;2023-02-17T13:01:06;101094.44;;;14.12;52.18
62111;BME280;48102;47.526;19.072;2023-02-17T13:04:16;101102.72;;;14.05;51.93
62111;BME280;48102;47.526;19.072;2023-02-17T13:07:37;101110.12;;;13.64;52.64
62111;BME280;48102;47.526;19.072;2023-02-17T13:10:41;101093.97;;;13.34;54.02
62111;BME280;48102;47.526;19.072;2023-02-17T13:13:44;101100.59;;;13.06;54.27
62111;BME280;48102;47.526;19.072;2023-02-17T13:16:47;101096.50;;;12.99;55.09
62111;BME280;48102;47.526;19.072;2023-02-17T13:23:24;101105.41;;;12.79;56.85
62111;BME280;48102;47.526;19.072;2023-02-17T13:26:30;101101.97;;;12.59;60.28
62111;BME280;48102;47.526;19.072;2023-02-17T13:29:35;101104.97;;;12.12;66.30
62111;BME280;48102;47.526;19.072;2023-02-17T13:32:38;101101.91;;;11.80;70.58
62111;BME280;48102;47.526;19.072;2023-02-17T13:35:41;101105.50;;;11.99;69.23
62111;BME280;48102;47.526;19.072;2023-02-17T13:38:56;101102.38;;;12.30;67.80
62111;BME280;48102;47.526;19.072;2023-02-17T13:42:03;101099.25;;;12.60;63.21
62111;BME280;48102;47.526;19.072;2023-02-17T13:45:39;101099.16;;;12.99;60.51
62111;BME280;48102;47.526;19.072;2023-02-17T13:48:43;101095.13;;;13.47;58.99
62111;BME280;48102;47.526;19.072;2023-02-17T13:51:46;101086.69;;;14.09;56.19
62111;BME280;48102;47.526;19.072;2023-02-17T13:54:59;101082.88;;;14.63;53.57
62111;BME280;48102;47.526;19.072;2023-02-17T13:58:02;101081.25;;;14.76;52.95
62111;BME280;48102;47.526;19.072;2023-02-17T14:01:11;101072.97;;;14.51;53.27
62111;BME280;48102;47.526;19.072;2023-02-17T14:04:28;101067.94;;;14.45;53.92
62111;BME280;48102;47.526;19.072;2023-02-17T14:07:35;101058.69;;;14.69;52.76
62111;BME280;48102;47.526;19.072;2023-02-17T14:10:39;101056.69;;;14.57;53.13
62111;BME280;48102;47.526;19.072;2023-02-17T14:13:44;101057.72;;;14.54;54.44
62111;BME280;48102;47.526;19.072;2023-02-17T14:17:06;101064.28;;;14.47;54.82
62111;BME280;48102;47.526;19.072;2023-02-17T14:20:43;101047.97;;;14.22;55.26
62111;BME280;48102;47.526;19.072;2023-02-17T14:23:49;101054.59;;;13.80;57.83
62111;BME280;48102;47.526;19.072;2023-02-17T14:27:02;101044.16;;;13.42;60.18
62111;BME280;48102;47.526;19.072;2023-02-17T14:30:36;101038.66;;;13.11;62.32
62111;BME280;48102;47.526;19.072;2023-02-17T14:34:00;101036.34;;;12.86;65.62
62111;BME280;48102;47.526;19.072;2023-02-17T14:37:29;101037.84;;;12.72;68.25
62111;BME280;48102;47.526;19.072;2023-02-17T14:40:33;101041.03;;;12.62;72.15
62111;BME280;48102;47.526;19.072;2023-02-17T14:43:36;101043.09;;;12.36;75.92
62111;BME280;48102;47.526;19.072;2023-02-17T14:46:39;101039.34;;;12.21;79.45
62111;BME280;48102;47.526;19.072;2023-02-17T14:49:42;101037.97;;;12.13;82.15
62111;BME280;48102;47.526;19.072;2023-02-17T14:52:47;101039.12;;;12.07;83.20
62111;BME280;48102;47.526;19.072;2023-02-17T14:56:00;101040.37;;;11.98;85.82
62111;BME280;48102;47.526;19.072;2023-02-17T14:59:04;101044.50;;;11.85;87.69
62111;BME280;48102;47.526;19.072;2023-02-17T15:02:16;101040.66;;;11.92;88.94
62111;BME280;48102;47.526;19.072;2023-02-17T15:05:19;101039.47;;;11.79;90.07
62111;BME280;48102;47.526;19.072;2023-02-17T15:08:33;101031.06;;;11.69;91.12
62111;BME280;48102;47.526;19.072;2023-02-17T15:11:38;101014.31;;;11.50;92.61
62111;BME280;48102;47.526;19.072;2023-02-17T15:14:43;101018.78;;;11.48;94.22
62111;BME280;48102;47.526;19.072;2023-02-17T15:17:47;101013.03;;;11.38;95.99
62111;BME280;48102;47.526;19.072;2023-02-17T15:20:51;101008.09;;;11.30;95.82
62111;BME280;48102;47.526;19.072;2023-02-17T15:23:54;101003.16;;;11.23;96.52
62111;BME280;48102;47.526;19.072;2023-02-17T15:26:58;101001.03;;;11.11;97.43
62111;BME280;48102;47.526;19.072;2023-02-17T15:30:01;101001.06;;;11.09;99.35
62111;BME280;48102;47.526;19.072;2023-02-17T15:33:07;100998.97;;;10.97;100.00
62111;BME280;48102;47.526;19.072;2023-02-17T15:36:13;100993.84;;;10.92;100.00
62111;BME280;48102;47.526;19.072;2023-02-17T15:39:18;100997.38;;;10.93;99.92
62111;BME280;48102;47.526;19.072;2023-02-17T15:42:21;100994.41;;;10.78;100.00
62111;BME280;48102;47.526;19.072;2023-02-17T15:45:24;100994.66;;;10.72;100.00
62111;BME280;48102;47.526;19.072;2023-02-17T15:48:27;100993.00;;;10.70;100.00
62111;BME280;48102;47.526;19.072;2023-02-17T15:51:35;101001.38;;;10.58;100.00
62111;BME280;48102;47.526;19.072;2023-02-17T15:54:41;101007.75;;;10.52;100.00
62111;BME280;48102;47.526;19.072;2023-02-17T15:57:47;101006.13;;;10.49;100.00
62111;BME280;48102;47.526;19.072;2023-02-17T16:00:50;100998.53;;;10.40;100.00
62111;BME280;48102;47.526;19.072;2023-02-17T16:03:55;101003.22;;;10.34;100.00
62111;BME280;48102;47.526;19.072;2023-02-17T16:06:58;101003.22;;;10.34;100.00
62111;BME280;48102;47.526;19.072;2023-02-17T16:10:02;101008.47;;;10.34;100.00
62111;BME280;48102;47.526;19.072;2023-02-17T16:13:05;100995.06;;;10.40;100.00
62111;BME280;48102;47.526;19.072;2023-02-17T16:16:16;100989.94;;;10.37;100.00
62111;BME280;48102;47.526;19.072;2023-02-17T16:19:19;100977.91;;;10.29;100.00
